Time;durP1;ratioP1;P1;durP2;ratioP2;P2;SDS_P1;SDS_P2;PMS_P1;PMS_P2;Temp;Humidity;BMP_temperature;BMP_pressure;BME280_temperature;BME280_humidity;BME280_pressure;Samples;Min_cycle;Max_cycle;Signal;HPM_P1;HPM_P2
2022/05/27 00:00:54;;;;;;;4.93;1.57;;;15.80;42.40;;;;;;5104757;28;20171;-78
2022/05/27 00:03:20;;;;;;;4.03;1.47;;;15.90;43.50;;;;;;5107515;28;20254;-81
2022/05/27 00:05:50;;;;;;;6.80;2.27;;;15.80;41.50;;;;;;5119062;28;21252;-82
2022/05/27 00:08:16;;;;;;;7.17;1.47;;;15.80;42.90;;;;;;5114482;28;20262;-81
2022/05/27 00:10:46;;;;;;;4.13;1.80;;;15.80;42.40;;;;;;5088041;28;20196;-83
2022/05/27 00:13:15;;;;;;;4.53;1.50;;;15.70;44.60;;;;;;5096790;28;20188;-82
2022/05/27 00:15:42;;;;;;;5.57;2.10;;;15.80;44.70;;;;;;5079625;28;20191;-81
2022/05/27 00:18:08;;;;;;;4.60;2.20;;;15.70;44.10;;;;;;5098846;28;20183;-83
2022/05/27 00:20:35;;;;;;;5.43;1.87;;;15.80;43.80;;;;;;5098570;28;20720;-80
2022/05/27 00:23:01;;;;;;;4.47;2.37;;;15.90;42.60;;;;;;5088359;28;20187;-82
2022/05/27 00:25:28;;;;;;;5.30;1.93;;;15.80;43.90;;;;;;5118984;28;20168;-80
2022/05/27 00:27:53;;;;;;;4.97;1.60;;;15.80;46.60;;;;;;5112796;28;20248;-81
2022/05/27 00:30:25;;;;;;;5.17;2.10;;;15.80;46.10;;;;;;5106620;28;20190;-84
2022/05/27 00:32:54;;;;;;;6.93;1.73;;;15.80;45.50;;;;;;5094554;28;20267;-82
2022/05/27 00:35:21;;;;;;;5.30;1.90;;;15.70;46.00;;;;;;5076347;28;20265;-81
2022/05/27 00:37:47;;;;;;;4.43;1.90;;;15.70;46.90;;;;;;5094267;28;20552;-83
2022/05/27 00:40:14;;;;;;;5.20;2.00;;;15.70;49.30;;;;;;5077362;28;20187;-80
2022/05/27 00:42:41;;;;;;;5.70;1.90;;;15.60;49.20;;;;;;5089712;28;20190;-83
2022/05/27 00:45:15;;;;;;;7.77;2.47;;;15.60;50.50;;;;;;5077644;28;20197;-81
2022/05/27 00:47:43;;;;;;;9.43;2.53;;;15.70;50.30;;;;;;5093889;28;20179;-87
2022/05/27 00:50:13;;;;;;;7.60;2.20;;;15.50;53.50;;;;;;5094243;28;20182;-84
2022/05/27 00:52:41;;;;;;;6.50;2.23;;;15.60;55.70;;;;;;5093848;28;20170;-84
2022/05/27 00:55:12;;;;;;;6.87;2.63;;;15.50;55.50;;;;;;5094663;28;20177;-83
2022/05/27 00:57:48;;;;;;;8.97;2.13;;;15.60;54.10;;;;;;5099146;28;20185;-80
2022/05/27 01:00:18;;;;;;;6.90;2.50;;;15.60;55.00;;;;;;5105977;28;20175;-81
2022/05/27 01:02:44;;;;;;;8.37;2.73;;;15.60;54.90;;;;;;5094595;28;20196;-81
2022/05/27 01:05:12;;;;;;;7.13;2.30;;;15.50;56.90;;;;;;5094522;28;20716;-83
2022/05/27 01:07:38;;;;;;;9.20;2.50;;;15.60;56.60;;;;;;5093968;28;20666;-83
2022/05/27 01:10:07;;;;;;;6.40;2.20;;;15.60;56.10;;;;;;5094011;28;20186;-83
2022/05/27 01:12:40;;;;;;;5.60;2.37;;;15.60;55.40;;;;;;5094006;28;20185;-83
2022/05/27 01:15:37;;;;;;;6.87;2.43;;;15.60;55.80;;;;;;5076129;28;20195;-84
2022/05/27 01:18:04;;;;;;;6.30;2.30;;;15.60;57.70;;;;;;5101554;28;20181;-83
2022/05/27 01:20:38;;;;;;;8.20;2.57;;;15.50;59.20;;;;;;5100397;28;20175;-81
2022/05/27 01:23:33;;;;;;;8.63;2.50;;;15.60;57.80;;;;;;5098996;28;20158;-84
2022/05/27 01:26:33;;;;;;;6.60;2.33;;;15.60;58.60;;;;;;5080933;28;20182;-83
2022/05/27 01:29:18;;;;;;;7.23;2.60;;;15.60;58.40;;;;;;5099038;28;20207;-80
2022/05/27 01:31:48;;;;;;;6.43;2.63;;;15.70;57.20;;;;;;5080854;28;20164;-82
2022/05/27 01:34:44;;;;;;;8.23;2.47;;;15.60;59.00;;;;;;5102373;28;20175;-81
2022/05/27 01:37:17;;;;;;;9.07;2.80;;;15.70;58.10;;;;;;5120908;28;20158;-81
2022/05/27 01:39:53;;;;;;;8.37;2.60;;;15.60;59.50;;;;;;5117608;28;20200;-78
2022/05/27 01:42:41;;;;;;;5.93;2.73;;;15.60;59.40;;;;;;5118788;28;20149;-77
2022/05/27 01:45:28;;;;;;;5.80;2.37;;;15.80;59.40;;;;;;5119480;28;20218;-78
2022/05/27 01:51:34;;;;;;;8.20;2.70;;;15.80;61.60;;;;;;5118425;28;20164;-79
2022/05/27 01:54:19;;;;;;;7.03;2.47;;;15.70;63.60;;;;;;5119175;28;20179;-80
2022/05/27 01:57:00;;;;;;;7.53;2.97;;;15.70;66.20;;;;;;5103506;28;20165;-84
2022/05/27 02:00:08;;;;;;;9.03;3.10;;;15.70;66.00;;;;;;5083857;28;20173;-83
2022/05/27 02:02:40;;;;;;;9.37;2.90;;;15.60;72.50;;;;;;5084302;28;20224;-85
2022/05/27 02:05:14;;;;;;;9.90;3.13;;;15.50;74.40;;;;;;5091137;28;20169;-82
2022/05/27 02:07:47;;;;;;;8.87;3.07;;;15.50;74.60;;;;;;5090726;28;20180;-81
2022/05/27 02:10:27;;;;;;;9.27;3.17;;;15.50;73.80;;;;;;5100720;28;20174;-83
2022/05/27 02:12:58;;;;;;;9.60;3.60;;;15.50;73.90;;;;;;5097504;28;20174;-82
2022/05/27 02:15:30;;;;;;;10.37;3.87;;;15.40;75.80;;;;;;5078856;28;20559;-84
2022/05/27 02:18:05;;;;;;;10.73;3.20;;;15.50;77.40;;;;;;5078957;28;20795;-83
2022/05/27 02:20:37;;;;;;;8.17;2.80;;;15.30;77.50;;;;;;5078648;28;20259;-83
2022/05/27 02:23:26;;;;;;;7.90;2.97;;;15.30;79.40;;;;;;5096728;28;20165;-84
2022/05/27 02:25:53;;;;;;;10.13;3.23;;;15.30;79.50;;;;;;5070377;28;20261;-83
2022/05/27 02:28:31;;;;;;;9.07;3.33;;;15.30;80.00;;;;;;5077656;28;20212;-84
2022/05/27 02:31:05;;;;;;;13.73;3.60;;;15.20;81.60;;;;;;5096797;28;20171;-80
2022/05/27 02:36:32;;;;;;;11.63;3.40;;;15.20;84.50;;;;;;5096970;28;20664;-80
2022/05/27 02:38:57;;;;;;;11.40;3.57;;;15.20;86.30;;;;;;5096554;28;20308;-83
2022/05/27 02:41:50;;;;;;;10.50;4.03;;;15.30;87.30;;;;;;5096616;28;20697;-83
2022/05/27 02:44:29;;;;;;;8.87;3.43;;;15.10;89.90;;;;;;5079413;28;20534;-85
2022/05/27 02:47:02;;;;;;;13.40;4.07;;;15.00;92.00;;;;;;5063263;28;20169;-78
2022/05/27 02:50:06;;;;;;;10.57;3.70;;;15.10;93.50;;;;;;5115804;28;20242;-79
2022/05/27 02:52:52;;;;;;;11.67;4.17;;;15.10;93.40;;;;;;5095909;28;20174;-80
2022/05/27 02:55:34;;;;;;;10.00;3.40;;;15.20;93.00;;;;;;5116877;28;20174;-79
2022/05/27 02:58:06;;;;;;;8.83;4.13;;;15.10;93.30;;;;;;5120250;28;20161;-78
2022/05/27 03:00:34;;;;;;;14.57;4.17;;;15.00;94.00;;;;;;5119983;28;20161;-80
2022/05/27 03:03:01;;;;;;;10.87;3.70;;;15.10;94.00;;;;;;5120280;28;20189;-78
2022/05/27 03:05:52;;;;;;;8.30;4.13;;;15.10;93.60;;;;;;5110652;28;20183;-82
2022/05/27 03:08:33;;;;;;;10.73;3.60;;;15.20;93.10;;;;;;5057767;28;20267;-80
2022/05/27 03:11:17;;;;;;;14.57;4.03;;;15.30;92.50;;;;;;5116834;28;20203;-79
2022/05/27 03:17:23;;;;;;;11.83;3.50;;;15.30;91.50;;;;;;5105872;28;20191;-83
2022/05/27 03:20:09;;;;;;;10.73;3.80;;;15.40;91.00;;;;;;5097797;28;20195;-84
2022/05/27 03:23:02;;;;;;;7.67;3.30;;;15.30;90.40;;;;;;5065000;28;20188;-80
2022/05/27 03:25:52;;;;;;;13.00;3.90;;;15.40;86.80;;;;;;5098448;28;20174;-82
2022/05/27 03:28:38;;;;;;;12.57;3.73;;;15.50;83.60;;;;;;5082148;28;20252;-81
2022/05/27 03:31:13;;;;;;;9.40;3.57;;;15.50;83.00;;;;;;5105390;28;20175;-77
2022/05/27 03:34:05;;;;;;;14.10;4.30;;;15.60;82.00;;;;;;5091257;28;20173;-79
2022/05/27 03:37:08;;;;;;;10.30;3.90;;;15.40;82.40;;;;;;5087001;28;20661;-80
2022/05/27 03:39:42;;;;;;;12.37;4.50;;;15.20;86.10;;;;;;5096145;28;20631;-82
2022/05/27 03:42:10;;;;;;;12.70;4.30;;;15.20;89.10;;;;;;5077284;28;20177;-79
2022/05/27 03:44:36;;;;;;;10.30;3.97;;;15.20;89.90;;;;;;5095696;28;20216;-81
2022/05/27 03:47:02;;;;;;;7.90;3.47;;;15.30;89.60;;;;;;5077401;28;20178;-79
2022/05/27 03:49:28;;;;;;;10.77;3.77;;;15.20;88.20;;;;;;5094999;28;20203;-83
2022/05/27 03:51:56;;;;;;;10.97;3.80;;;15.30;86.60;;;;;;5094908;28;20167;-82
2022/05/27 03:54:23;;;;;;;9.97;3.57;;;15.40;85.60;;;;;;5094794;28;20182;-81
2022/05/27 03:56:49;;;;;;;10.50;3.87;;;15.40;83.70;;;;;;5094742;28;20694;-79
2022/05/27 03:59:16;;;;;;;13.03;3.83;;;15.40;82.20;;;;;;5098244;28;20170;-84
2022/05/27 04:01:45;;;;;;;11.80;3.67;;;15.50;81.50;;;;;;5094971;28;20166;-84
2022/05/27 04:04:15;;;;;;;13.37;4.30;;;15.50;82.20;;;;;;5095647;28;20355;-84
2022/05/27 04:06:41;;;;;;;16.40;4.20;;;15.40;82.40;;;;;;5106357;28;20172;-80
2022/05/27 04:09:07;;;;;;;11.67;3.80;;;15.30;85.00;;;;;;5103423;28;20234;-81
2022/05/27 04:11:34;;;;;;;10.43;3.83;;;15.30;87.30;;;;;;5096617;28;20176;-83
2022/05/27 04:14:00;;;;;;;12.87;4.13;;;15.30;88.30;;;;;;5095054;28;20193;-83
2022/05/27 04:16:26;;;;;;;12.97;4.27;;;15.40;89.50;;;;;;5094855;28;20180;-82
2022/05/27 04:18:52;;;;;;;13.17;4.47;;;15.30;89.40;;;;;;5078377;28;20181;-82
2022/05/27 04:21:19;;;;;;;13.40;4.37;;;15.30;90.40;;;;;;5079222;28;20170;-82
2022/05/27 04:23:45;;;;;;;17.17;5.20;;;15.30;90.90;;;;;;5087859;28;20166;-79
2022/05/27 04:26:11;;;;;;;15.43;5.17;;;15.30;90.60;;;;;;5101694;28;20170;-82
2022/05/27 04:28:38;;;;;;;14.50;5.10;;;15.30;90.90;;;;;;5102339;28;20232;-83
2022/05/27 04:31:04;;;;;;;13.40;5.70;;;15.40;91.80;;;;;;5108959;28;20144;-79
2022/05/27 04:33:30;;;;;;;11.30;5.20;;;15.40;92.50;;;;;;5110548;28;20196;-79
2022/05/27 04:35:57;;;;;;;16.00;6.53;;;15.10;94.40;;;;;;5102953;28;20180;-83
2022/05/27 04:38:29;;;;;;;15.37;6.23;;;15.00;95.90;;;;;;5095475;28;20221;-80
2022/05/27 04:40:55;;;;;;;12.90;5.67;;;14.90;98.20;;;;;;5079724;28;20161;-82
2022/05/27 04:43:21;;;;;;;14.37;6.73;;;14.90;99.20;;;;;;5097507;28;20169;-83
2022/05/27 04:45:47;;;;;;;16.73;6.80;;;14.90;99.70;;;;;;5096857;28;20164;-80
2022/05/27 04:48:14;;;;;;;20.77;6.90;;;14.80;99.90;;;;;;5077637;28;20208;-84
2022/05/27 04:50:40;;;;;;;13.30;6.40;;;14.80;99.90;;;;;;5077427;28;20532;-81
2022/05/27 04:53:06;;;;;;;18.13;7.17;;;14.80;99.90;;;;;;5095104;28;20184;-84
2022/05/27 04:55:34;;;;;;;15.40;7.00;;;14.80;99.90;;;;;;5095203;28;20167;-83
2022/05/27 04:58:00;;;;;;;16.10;7.87;;;14.70;99.90;;;;;;5094833;28;20168;-82
2022/05/27 05:00:32;;;;;;;17.97;8.27;;;14.80;99.90;;;;;;5077211;28;20264;-83
2022/05/27 05:02:58;;;;;;;18.53;8.23;;;14.80;99.90;;;;;;5060692;28;20275;-82
2022/05/27 05:05:27;;;;;;;17.63;8.57;;;14.80;99.90;;;;;;5083070;28;20149;-82
2022/05/27 05:08:20;;;;;;;19.03;8.37;;;14.80;99.90;;;;;;5118378;28;20183;-80
2022/05/27 05:10:45;;;;;;;23.80;9.90;;;14.80;99.90;;;;;;5110636;28;20181;-80
2022/05/27 05:13:11;;;;;;;20.53;9.50;;;14.80;99.90;;;;;;5099760;28;20206;-79
2022/05/27 05:15:37;;;;;;;22.27;10.03;;;14.90;99.90;;;;;;5106397;28;20175;-82
2022/05/27 05:18:12;;;;;;;17.83;8.80;;;14.90;99.90;;;;;;5109409;28;20621;-84
2022/05/27 05:20:40;;;;;;;17.10;9.53;;;14.90;99.90;;;;;;5076898;28;20229;-84
2022/05/27 05:23:06;;;;;;;20.90;9.87;;;14.90;99.90;;;;;;5094531;28;20278;-82
2022/05/27 05:25:33;;;;;;;19.43;10.03;;;14.80;99.90;;;;;;5097084;28;20204;-84
2022/05/27 05:27:59;;;;;;;19.93;9.87;;;14.80;99.90;;;;;;5081124;28;20223;-84
2022/05/27 05:30:26;;;;;;;14.57;9.50;;;14.80;99.90;;;;;;5113166;28;20180;-83
2022/05/27 05:32:52;;;;;;;17.67;10.60;;;14.70;99.90;;;;;;5115003;28;20637;-79
2022/05/27 05:35:18;;;;;;;16.10;9.73;;;14.80;99.90;;;;;;5093687;28;20256;-83
2022/05/27 05:37:47;;;;;;;15.63;9.97;;;14.90;99.90;;;;;;5098810;28;20213;-81
2022/05/27 05:40:16;;;;;;;15.63;10.27;;;14.90;99.90;;;;;;5095183;28;20187;-84
2022/05/27 05:42:43;;;;;;;19.10;9.63;;;15.00;99.90;;;;;;5097997;28;20252;-85
2022/05/27 05:45:12;;;;;;;15.60;9.07;;;14.90;99.90;;;;;;5077572;28;20605;-83
2022/05/27 05:47:37;;;;;;;16.57;9.47;;;15.00;99.90;;;;;;5079957;28;20585;-84
2022/05/27 05:50:06;;;;;;;12.70;8.77;;;15.00;99.90;;;;;;5108608;28;20165;-80
2022/05/27 05:52:31;;;;;;;15.67;8.63;;;15.10;99.90;;;;;;5117814;28;20248;-79
2022/05/27 05:54:58;;;;;;;16.63;9.43;;;15.10;99.90;;;;;;5104109;28;20189;-81
2022/05/27 05:57:42;;;;;;;15.93;9.53;;;15.10;99.90;;;;;;5098085;28;20183;-85
2022/05/27 06:00:13;;;;;;;12.80;8.63;;;15.10;99.90;;;;;;5097288;28;20179;-81
2022/05/27 06:02:38;;;;;;;18.43;10.73;;;15.00;99.90;;;;;;5080785;28;20561;-86
2022/05/27 06:05:06;;;;;;;13.53;10.50;;;14.90;99.90;;;;;;5097640;28;20188;-82
2022/05/27 06:07:33;;;;;;;15.07;11.60;;;15.00;99.90;;;;;;5099578;28;20204;-85
2022/05/27 06:09:59;;;;;;;17.43;11.33;;;15.00;99.90;;;;;;5084790;28;20221;-83
2022/05/27 06:12:26;;;;;;;19.93;13.23;;;15.10;99.90;;;;;;5082415;28;20545;-82
2022/05/27 06:14:53;;;;;;;16.80;12.17;;;15.00;99.90;;;;;;5097872;28;20197;-85
2022/05/27 06:17:20;;;;;;;18.87;13.57;;;15.00;99.90;;;;;;5097575;28;20223;-87
2022/05/27 06:19:46;;;;;;;18.60;12.90;;;15.10;99.90;;;;;;5100165;28;20185;-82
2022/05/27 06:22:12;;;;;;;21.97;14.03;;;15.20;99.90;;;;;;5098101;28;20517;-81
2022/05/27 06:24:38;;;;;;;26.03;13.70;;;15.10;99.90;;;;;;5079135;28;20284;-83
2022/05/27 06:27:07;;;;;;;23.40;15.03;;;15.10;99.90;;;;;;5098781;28;20610;-85
2022/05/27 06:35:04;;;;;;;21.30;15.03;;;15.30;99.90;;;;;;5100517;28;20245;-80
2022/05/27 06:37:31;;;;;;;22.17;16.13;;;15.30;99.90;;;;;;5099832;28;20301;-80
2022/05/27 06:39:57;;;;;;;24.50;15.87;;;15.40;99.90;;;;;;5081468;28;20335;-84
2022/05/27 06:42:23;;;;;;;22.43;14.27;;;15.60;99.90;;;;;;5098982;28;20194;-84
2022/05/27 06:44:48;;;;;;;25.30;15.77;;;15.70;99.90;;;;;;5080944;28;20187;-82
2022/05/27 06:47:14;;;;;;;23.20;16.07;;;15.70;99.90;;;;;;5107130;28;20195;-85
2022/05/27 06:49:43;;;;;;;20.50;15.20;;;15.70;99.90;;;;;;5101463;28;20237;-83
2022/05/27 06:52:10;;;;;;;24.47;15.80;;;15.70;99.90;;;;;;5117767;28;20179;-80
2022/05/27 06:54:36;;;;;;;25.93;16.50;;;15.70;99.90;;;;;;5102679;28;20183;-80
2022/05/27 06:57:03;;;;;;;26.00;16.13;;;15.70;99.90;;;;;;5101952;28;20205;-81
2022/05/27 06:59:29;;;;;;;21.67;15.87;;;15.90;99.90;;;;;;5113381;28;20179;-80
2022/05/27 07:01:56;;;;;;;19.27;16.00;;;15.80;99.90;;;;;;5119168;28;20176;-78
2022/05/27 07:05:09;;;;;;;20.47;13.73;;;15.90;99.90;;;;;;5100380;28;20195;-80
2022/05/27 07:07:40;;;;;;;23.57;14.60;;;16.00;99.90;;;;;;5118997;28;20198;-79
2022/05/27 07:10:07;;;;;;;20.17;13.50;;;16.10;99.90;;;;;;5120000;28;20214;-82
2022/05/27 07:12:36;;;;;;;20.33;12.60;;;16.10;99.90;;;;;;5112549;28;20231;-84
2022/05/27 07:15:05;;;;;;;17.87;11.43;;;16.20;99.90;;;;;;5085206;28;20178;-82
2022/05/27 07:17:52;;;;;;;16.40;11.23;;;16.20;99.90;;;;;;5102118;28;20646;-86
2022/05/27 07:20:26;;;;;;;17.83;10.87;;;16.30;99.90;;;;;;5100818;28;20164;-80
2022/05/27 07:22:57;;;;;;;15.33;10.03;;;16.40;99.90;;;;;;5100185;28;20639;-82
2022/05/27 07:25:35;;;;;;;14.27;10.00;;;16.60;98.10;;;;;;5098496;28;20168;-81
2022/05/27 07:28:07;;;;;;;14.17;8.87;;;16.60;97.70;;;;;;5096304;28;20203;-86
2022/05/27 07:30:36;;;;;;;16.47;9.67;;;16.60;96.20;;;;;;5098051;28;20234;-83
2022/05/27 07:33:04;;;;;;;12.63;8.77;;;16.80;96.60;;;;;;5098318;28;20171;-85
2022/05/27 07:35:30;;;;;;;13.10;8.23;;;16.80;95.60;;;;;;5095733;28;20168;-83
2022/05/27 07:37:55;;;;;;;14.23;6.93;;;16.90;95.20;;;;;;5082109;28;20254;-85
2022/05/27 07:40:21;;;;;;;14.43;6.60;;;17.00;93.90;;;;;;5097297;28;20724;-85
2022/05/27 07:42:49;;;;;;;12.60;5.90;;;17.10;92.50;;;;;;5096294;28;20687;-80
2022/05/27 07:45:17;;;;;;;10.13;5.00;;;17.00;91.30;;;;;;5079098;28;20167;-81
2022/05/27 07:47:43;;;;;;;9.87;4.80;;;16.90;92.20;;;;;;5102020;28;20247;-82
2022/05/27 07:50:13;;;;;;;10.20;4.97;;;16.90;90.40;;;;;;5088415;28;20168;-81
2022/05/27 07:52:39;;;;;;;9.50;4.17;;;16.90;89.70;;;;;;5108801;28;20159;-80
2022/05/27 07:55:06;;;;;;;7.37;3.50;;;16.90;90.50;;;;;;5098876;28;20174;-81
2022/05/27 07:57:32;;;;;;;11.27;4.00;;;17.00;86.20;;;;;;5095591;28;20159;-82
2022/05/27 08:00:04;;;;;;;9.63;3.83;;;17.20;85.70;;;;;;5096713;28;20167;-81
2022/05/27 08:02:30;;;;;;;9.90;4.40;;;17.20;82.70;;;;;;5063526;28;20586;-84
2022/05/27 08:04:57;;;;;;;9.03;4.20;;;17.20;85.70;;;;;;5087062;28;20180;-83
2022/05/27 08:07:24;;;;;;;8.70;4.33;;;17.50;86.80;;;;;;5102924;28;20187;-85
2022/05/27 08:09:50;;;;;;;9.20;3.77;;;17.60;81.10;;;;;;5081578;28;20310;-81
2022/05/27 08:12:15;;;;;;;7.50;3.70;;;17.50;78.00;;;;;;5108497;28;20175;-83
2022/05/27 08:14:43;;;;;;;7.90;3.33;;;17.50;76.40;;;;;;5104113;28;20205;-82
2022/05/27 08:17:10;;;;;;;8.77;3.33;;;17.70;72.30;;;;;;5118557;28;20180;-80
2022/05/27 08:19:37;;;;;;;6.63;3.13;;;17.70;67.30;;;;;;5109356;28;20190;-81
2022/05/27 08:22:04;;;;;;;10.27;3.50;;;17.90;65.40;;;;;;5102811;28;20190;-79
2022/05/27 08:24:52;;;;;;;7.33;2.47;;;17.90;67.10;;;;;;5075222;28;20233;-83
2022/05/27 08:27:18;;;;;;;4.17;2.10;;;17.90;56.50;;;;;;5075457;28;20229;-85
2022/05/27 08:29:44;;;;;;;8.87;2.30;;;18.10;54.40;;;;;;5075345;28;20268;-82
2022/05/27 08:32:09;;;;;;;3.90;1.90;;;18.00;54.40;;;;;;5077003;28;20164;-79
2022/05/27 08:40:41;;;;;;;8.13;2.43;;;18.00;44.60;;;;;;5096321;28;20183;-81
2022/05/27 08:43:44;;;;;;;3.83;1.93;;;17.90;44.60;;;;;;5049412;28;20180;-79
2022/05/27 08:46:35;;;;;;;3.97;2.23;;;18.00;45.90;;;;;;5093483;28;20152;-81
2022/05/27 08:49:13;;;;;;;4.23;2.03;;;18.00;28.80;;;;;;5088836;28;20192;-77
2022/05/27 08:51:47;;;;;;;5.97;1.80;;;18.20;9.40;;;;;;5092850;28;20226;-79
2022/05/27 08:54:37;;;;;;;3.70;2.10;;;18.10;12.10;;;;;;5084366;28;20184;-85
2022/05/27 09:00:14;;;;;;;5.67;2.13;;;18.20;20.40;;;;;;5076058;28;20208;-85
2022/05/27 09:02:49;;;;;;;4.80;2.10;;;18.20;7.80;;;;;;5074880;28;20244;-81
2022/05/27 09:05:21;;;;;;;5.17;1.90;;;18.20;1.00;;;;;;5076211;28;20658;-83
2022/05/27 09:08:01;;;;;;;5.77;2.00;;;18.20;4.90;;;;;;5075065;28;20185;-85
2022/05/27 09:11:04;;;;;;;7.10;2.40;;;18.20;14.50;;;;;;5075302;28;20188;-83
2022/05/27 09:14:02;;;;;;;5.03;2.20;;;18.30;8.50;;;;;;5074726;28;20179;-84
2022/05/27 09:16:41;;;;;;;2.93;1.60;;;18.40;1.00;;;;;;5040911;28;20207;-81
2022/05/27 09:19:13;;;;;;;5.53;1.77;;;18.40;1.00;;;;;;5076804;28;20188;-84
2022/05/27 09:22:12;;;;;;;3.77;1.50;;;18.50;1.00;;;;;;5084662;28;20186;-82
2022/05/27 09:24:58;;;;;;;4.73;1.70;;;18.50;1.00;;;;;;5063028;28;20199;-83
2022/05/27 09:27:37;;;;;;;5.50;1.93;;;18.80;1.00;;;;;;5083112;28;20231;-83
2022/05/27 09:30:10;;;;;;;7.17;1.77;;;18.90;1.00;;;;;;5084545;28;20211;-83
2022/05/27 09:32:55;;;;;;;5.13;2.20;;;18.70;1.00;;;;;;5082354;28;20219;-82
2022/05/27 09:35:25;;;;;;;5.07;2.30;;;18.70;1.00;;;;;;5078702;28;20184;-84
2022/05/27 09:38:00;;;;;;;4.70;2.20;;;18.50;1.00;;;;;;5077078;28;20173;-83
2022/05/27 09:40:38;;;;;;;4.20;1.60;;;18.60;1.00;;;;;;5060198;28;20191;-85
2022/05/27 09:43:40;;;;;;;5.03;1.73;;;18.40;1.00;;;;;;5059666;28;20185;-82
2022/05/27 09:46:13;;;;;;;5.23;2.00;;;18.50;1.00;;;;;;5078262;28;20242;-81
2022/05/27 09:48:38;;;;;;;4.17;2.00;;;18.60;1.00;;;;;;5078472;28;20216;-82
2022/05/27 09:51:07;;;;;;;4.37;2.03;;;18.60;1.00;;;;;;5093802;28;20263;-83
2022/05/27 09:53:48;;;;;;;4.17;1.90;;;18.70;1.00;;;;;;5098165;28;20171;-85
2022/05/27 09:56:16;;;;;;;6.73;1.87;;;18.90;1.00;;;;;;5100242;28;20217;-82
2022/05/27 09:58:46;;;;;;;3.20;1.70;;;19.20;1.00;;;;;;5091339;28;20185;-82
2022/05/27 10:01:24;;;;;;;3.07;1.70;;;19.40;1.00;;;;;;5104385;28;20180;-80
2022/05/27 10:04:06;;;;;;;4.60;1.83;;;19.60;1.00;;;;;;5097441;28;20357;-84
2022/05/27 10:06:34;;;;;;;3.60;1.60;;;19.50;1.00;;;;;;5097972;28;20228;-84
2022/05/27 10:09:08;;;;;;;5.37;2.00;;;19.40;1.00;;;;;;5097461;28;20208;-84
2022/05/27 10:11:46;;;;;;;4.37;2.00;;;19.50;1.00;;;;;;5097517;28;20174;-80
2022/05/27 10:14:20;;;;;;;4.20;2.00;;;19.60;1.00;;;;;;5100247;28;20177;-80
2022/05/27 10:17:11;;;;;;;2.57;1.80;;;19.70;1.00;;;;;;5107661;28;20191;-81
2022/05/27 10:19:38;;;;;;;4.70;2.30;;;19.60;1.00;;;;;;5104028;28;20203;-83
2022/05/27 10:22:29;;;;;;;5.47;2.20;;;19.30;1.00;;;;;;5102237;28;20192;-84
2022/05/27 10:25:11;;;;;;;4.60;2.10;;;19.00;1.00;;;;;;5099018;28;20180;-84
2022/05/27 10:28:05;;;;;;;7.43;3.80;;;18.90;1.00;;;;;;5099237;28;20230;-84
2022/05/27 10:30:38;;;;;;;5.97;2.47;;;18.90;1.00;;;;;;5096420;28;20744;-84
2022/05/27 10:33:16;;;;;;;5.00;2.27;;;18.80;1.00;;;;;;5098206;28;20529;-81
2022/05/27 10:35:42;;;;;;;8.90;2.87;;;18.70;1.00;;;;;;5097863;28;20636;-82
2022/05/27 10:38:13;;;;;;;6.27;3.57;;;18.60;1.00;;;;;;5097661;28;20184;-83
2022/05/27 10:40:58;;;;;;;7.50;2.60;;;18.70;1.00;;;;;;5098002;28;20642;-81
2022/05/27 10:43:38;;;;;;;5.17;2.10;;;18.80;1.00;;;;;;5079486;28;20183;-85
2022/05/27 10:46:13;;;;;;;4.40;1.80;;;19.10;1.00;;;;;;5098162;28;20187;-83
2022/05/27 10:49:24;;;;;;;4.40;2.00;;;19.40;1.00;;;;;;5098131;28;20203;-85
2022/05/27 10:51:55;;;;;;;6.23;2.40;;;19.30;1.00;;;;;;5103549;28;20215;-82
2022/05/27 10:54:30;;;;;;;7.73;3.33;;;19.00;1.00;;;;;;5106789;28;20193;-82
2022/05/27 11:02:48;;;;;;;6.70;2.33;;;19.20;1.00;;;;;;5118049;28;20188;-78
2022/05/27 11:05:26;;;;;;;5.07;2.40;;;19.20;1.00;;;;;;5099396;28;20235;-79
2022/05/27 11:07:55;;;;;;;7.50;2.17;;;19.20;1.00;;;;;;5118638;28;20203;-78
2022/05/27 11:10:48;;;;;;;6.77;2.50;;;19.10;1.00;;;;;;5101428;28;20262;-80
2022/05/27 11:20:04;;;;;;;6.63;2.47;;;19.30;1.00;;;;;;5096228;28;20289;-83
2022/05/27 11:23:03;;;;;;;6.33;2.57;;;19.40;99.90;;;;;;5102494;28;20180;-79
2022/05/27 11:26:10;;;;;;;6.27;2.37;;;19.40;99.90;;;;;;5117337;28;20152;-81
2022/05/27 11:29:01;;;;;;;6.80;2.50;;;19.40;1.00;;;;;;5078695;28;20278;-81
2022/05/27 11:31:46;;;;;;;8.60;2.70;;;19.40;1.00;;;;;;5119423;28;20172;-82
2022/05/27 11:34:34;;;;;;;5.43;2.13;;;19.50;1.00;;;;;;5100840;28;20171;-84
2022/05/27 11:37:21;;;;;;;5.50;2.73;;;19.30;99.90;;;;;;5098711;28;20187;-81
2022/05/27 11:40:23;;;;;;;6.07;2.03;;;19.20;99.90;;;;;;5095162;28;20168;-83
2022/05/27 11:43:07;;;;;;;7.47;2.70;;;19.20;99.90;;;;;;5059345;28;20164;-82
2022/05/27 11:45:38;;;;;;;7.90;2.93;;;19.70;99.90;;;;;;5076666;28;20175;-83
2022/05/27 11:48:37;;;;;;;5.53;2.33;;;19.60;99.90;;;;;;5058818;28;20185;-82
2022/05/27 11:51:09;;;;;;;4.60;2.03;;;19.40;1.00;;;;;;5058965;28;20180;-84
2022/05/27 11:53:58;;;;;;;8.77;2.50;;;19.50;1.00;;;;;;5058847;28;20336;-84
2022/05/27 11:56:37;;;;;;;5.03;2.20;;;19.40;1.00;;;;;;5077815;28;20247;-81
2022/05/27 11:59:37;;;;;;;5.73;2.23;;;19.40;1.00;;;;;;5059327;28;20197;-82
2022/05/27 12:02:15;;;;;;;9.43;3.43;;;19.50;1.00;;;;;;5077078;28;20204;-84
2022/05/27 12:05:02;;;;;;;8.07;3.30;;;19.50;1.00;;;;;;5077673;28;20178;-83
2022/05/27 12:07:32;;;;;;;8.87;3.20;;;19.50;1.00;;;;;;5059002;28;20179;-80
2022/05/27 12:10:04;;;;;;;8.43;3.40;;;19.40;1.00;;;;;;5076703;28;20199;-83
2022/05/27 12:12:33;;;;;;;10.77;3.97;;;19.20;1.00;;;;;;5076947;28;20154;-84
2022/05/27 12:15:06;;;;;;;11.43;3.57;;;19.00;1.00;;;;;;5076927;28;20259;-81
2022/05/27 12:17:45;;;;;;;13.97;4.50;;;19.10;1.00;;;;;;5076866;28;20179;-84
2022/05/27 12:20:18;;;;;;;11.57;4.07;;;19.00;1.00;;;;;;5059466;28;20547;-84
2022/05/27 12:22:47;;;;;;;7.93;3.80;;;19.00;1.00;;;;;;5069183;28;20194;-81
2022/05/27 12:25:18;;;;;;;9.13;3.47;;;18.80;1.00;;;;;;5082692;28;20187;-79
2022/05/27 12:27:44;;;;;;;9.73;3.67;;;18.90;1.00;;;;;;5081885;28;20169;-81
2022/05/27 12:30:14;;;;;;;9.40;3.77;;;19.00;1.00;;;;;;5082779;28;20227;-84
2022/05/27 12:32:43;;;;;;;9.50;3.70;;;19.00;1.00;;;;;;5063988;28;20192;-79
2022/05/27 12:35:20;;;;;;;7.10;3.33;;;19.10;1.00;;;;;;5079151;28;20183;-80
2022/05/27 12:38:11;;;;;;;7.30;3.37;;;19.30;1.00;;;;;;5092287;28;20184;-78
2022/05/27 12:40:52;;;;;;;8.50;3.60;;;19.40;1.00;;;;;;5076161;28;20228;-79
2022/05/27 12:43:20;;;;;;;9.20;3.37;;;19.30;99.90;;;;;;5087461;28;20172;-83
2022/05/27 12:45:52;;;;;;;8.53;3.20;;;19.20;99.90;;;;;;5060148;28;20178;-81
2022/05/27 12:48:37;;;;;;;9.87;3.80;;;19.30;99.90;;;;;;5077090;28;20198;-82
2022/05/27 12:54:43;;;;;;;7.43;3.40;;;19.10;99.90;;;;;;5079545;28;20170;-83
2022/05/27 13:03:30;;;;;;;6.93;3.20;;;19.10;99.90;;;;;;5077249;28;20201;-84
2022/05/27 13:06:19;;;;;;;8.23;3.53;;;19.20;99.90;;;;;;5077623;28;20197;-80
2022/05/27 13:08:52;;;;;;;13.53;3.93;;;19.10;99.90;;;;;;5059398;28;20213;-81
2022/05/27 13:11:24;;;;;;;9.53;3.43;;;19.30;99.90;;;;;;5065750;28;20190;-83
2022/05/27 13:14:05;;;;;;;6.80;2.90;;;19.40;23.30;;;;;;5073432;28;20180;-83
2022/05/27 13:17:09;;;;;;;6.57;3.00;;;19.50;1.00;;;;;;5101440;28;20177;-81
2022/05/27 13:19:45;;;;;;;5.67;2.30;;;19.30;7.30;;;;;;5101005;28;20157;-84
2022/05/27 13:22:34;;;;;;;5.47;2.70;;;19.40;12.20;;;;;;5098029;28;20205;-83
2022/05/27 13:25:24;;;;;;;7.00;2.30;;;19.40;84.70;;;;;;5099976;28;20148;-80
2022/05/27 13:27:58;;;;;;;8.67;2.67;;;19.50;99.90;;;;;;5100391;28;20159;-82
2022/05/27 13:30:48;;;;;;;8.70;2.60;;;19.60;1.00;;;;;;5089053;28;20191;-83
2022/05/27 13:34:00;;;;;;;8.60;2.97;;;19.60;1.00;;;;;;5055806;28;20185;-81
2022/05/27 13:36:48;;;;;;;6.80;2.40;;;19.50;1.00;;;;;;5085335;28;20175;-83
2022/05/27 13:39:20;;;;;;;7.93;2.30;;;19.50;1.00;;;;;;5082131;28;20162;-80
2022/05/27 13:41:56;;;;;;;7.97;4.07;;;19.40;1.00;;;;;;5081374;28;20160;-81
2022/05/27 13:44:25;;;;;;;7.50;2.70;;;19.60;1.00;;;;;;5081532;28;20622;-85
2022/05/27 13:46:56;;;;;;;7.20;2.37;;;19.60;1.00;;;;;;5081193;28;20178;-84
2022/05/27 13:49:33;;;;;;;6.70;2.70;;;19.90;99.90;;;;;;5063286;28;20266;-80
2022/05/27 13:52:01;;;;;;;6.77;2.30;;;19.60;1.00;;;;;;5081898;28;20178;-82
2022/05/27 13:54:38;;;;;;;7.33;2.73;;;19.40;99.90;;;;;;5082746;28;20170;-82
2022/05/27 13:57:11;;;;;;;7.97;3.40;;;19.40;99.90;;;;;;5064632;28;20238;-84
2022/05/27 13:59:47;;;;;;;6.83;3.10;;;19.40;1.00;;;;;;5082627;28;20258;-81
2022/05/27 14:02:22;;;;;;;8.50;3.07;;;19.30;1.00;;;;;;5087699;28;20157;-82
2022/05/27 14:04:53;;;;;;;7.67;2.60;;;19.40;43.50;;;;;;5100795;28;20188;-81
2022/05/27 14:07:26;;;;;;;7.73;2.70;;;19.40;1.00;;;;;;5067994;28;20174;-82
2022/05/27 14:10:17;;;;;;;7.03;2.60;;;19.60;1.00;;;;;;5086044;28;20207;-81